createdAt,value
2019-05-25T00:01:56.185Z,87.10
2019-05-25T00:04:23.726Z,87.30
2019-05-25T00:06:51.304Z,87.50
2019-05-25T00:09:18.917Z,87.90
2019-05-25T00:11:46.376Z,88.20
2019-05-25T00:14:13.831Z,88.40
2019-05-25T00:16:41.289Z,88.40
2019-05-25T00:19:08.882Z,88.40
2019-05-25T00:21:36.473Z,88.60
2019-05-25T00:24:12.061Z,88.20
2019-05-25T00:26:33.419Z,87.70
2019-05-25T00:29:00.959Z,87.50
2019-05-25T00:31:28.522Z,87.50
2019-05-25T00:33:56.261Z,87.90
2019-05-25T00:36:24.026Z,88.40
2019-05-25T00:38:51.665Z,89.40
2019-05-25T00:41:19.122Z,89.90
2019-05-25T00:43:46.719Z,89.90
2019-05-25T00:46:14.267Z,89.60
2019-05-25T00:48:41.806Z,89.40
2019-05-25T00:51:09.507Z,90.10
2019-05-25T00:53:36.957Z,90.40
2019-05-25T00:56:04.519Z,90.80
2019-05-25T00:58:31.994Z,91.00
2019-05-25T01:00:59.634Z,90.90
2019-05-25T01:03:27.186Z,90.80
2019-05-25T01:05:54.685Z,90.60
2019-05-25T01:08:22.283Z,90.50
2019-05-25T01:10:49.841Z,90.50
2019-05-25T01:13:17.353Z,90.40
2019-05-25T01:15:45.158Z,90.50
2019-05-25T01:18:13.805Z,90.60
2019-05-25T01:20:41.438Z,90.70
2019-05-25T01:23:08.967Z,90.70
2019-05-25T01:25:36.434Z,90.70
2019-05-25T01:28:03.966Z,90.80
2019-05-25T01:30:31.443Z,90.70
2019-05-25T01:32:59.277Z,90.60
2019-05-25T01:35:26.781Z,90.60
2019-05-25T01:37:54.455Z,90.80
2019-05-25T01:40:21.914Z,91.00
2019-05-25T01:42:49.393Z,91.30
2019-05-25T01:45:16.969Z,91.40
2019-05-25T01:47:45.254Z,91.50
2019-05-25T01:50:12.970Z,91.60
2019-05-25T01:52:41.109Z,91.60
2019-05-25T01:55:08.957Z,91.60
2019-05-25T01:57:36.502Z,91.80
2019-05-25T02:00:05.635Z,92.00
2019-05-25T02:02:34.243Z,92.00
2019-05-25T02:05:01.779Z,92.00
2019-05-25T02:07:29.355Z,92.10
2019-05-25T02:09:56.815Z,92.00
2019-05-25T02:12:24.355Z,92.00
2019-05-25T02:14:52.423Z,92.00
2019-05-25T02:17:20.047Z,91.90
2019-05-25T02:19:47.561Z,91.80
2019-05-25T02:22:15.020Z,92.00
2019-05-25T02:24:42.448Z,92.10
2019-05-25T02:27:09.938Z,92.30
2019-05-25T02:29:37.771Z,92.50
2019-05-25T02:32:05.279Z,92.60
2019-05-25T02:34:32.928Z,92.60
2019-05-25T02:37:00.718Z,92.70
2019-05-25T02:39:28.310Z,92.70
2019-05-25T02:41:57.543Z,92.70
2019-05-25T02:44:25.116Z,92.60
2019-05-25T02:46:52.569Z,92.70
2019-05-25T02:49:20.046Z,92.50
2019-05-25T02:51:47.622Z,92.60
2019-05-25T02:54:15.196Z,92.50
2019-05-25T02:56:42.621Z,92.30
2019-05-25T02:59:10.181Z,92.30
2019-05-25T03:01:37.616Z,92.30
2019-05-25T03:04:05.072Z,92.40
2019-05-25T03:06:33.773Z,92.70
2019-05-25T03:09:03.687Z,92.70
2019-05-25T03:11:31.845Z,92.90
2019-05-25T03:14:00.406Z,92.90
2019-05-25T03:16:27.906Z,93.00
2019-05-25T03:18:55.373Z,92.90
2019-05-25T03:21:22.907Z,93.00
2019-05-25T03:23:50.389Z,93.10
2019-05-25T03:26:17.816Z,93.10
2019-05-25T03:28:45.374Z,93.40
2019-05-25T03:31:13.946Z,93.70
2019-05-25T03:33:41.438Z,93.70
2019-05-25T03:36:08.999Z,93.00
2019-05-25T03:38:36.488Z,93.10
2019-05-25T03:41:04.040Z,93.30
2019-05-25T03:43:31.514Z,93.40
2019-05-25T03:45:59.109Z,93.10
2019-05-25T03:48:27.937Z,93.00
2019-05-25T03:50:56.629Z,93.10
2019-05-25T03:53:24.060Z,93.20
2019-05-25T03:56:04.851Z,93.10
2019-05-25T03:58:20.853Z,92.80
2019-05-25T04:00:48.346Z,92.80
2019-05-25T04:03:15.756Z,92.90
2019-05-25T04:05:43.215Z,93.10
2019-05-25T04:08:10.705Z,93.10
2019-05-25T04:10:39.119Z,93.40
2019-05-25T04:13:06.851Z,93.40
2019-05-25T04:15:34.409Z,93.70
2019-05-25T04:18:02.343Z,93.70
2019-05-25T04:20:31.099Z,93.60
2019-05-25T04:22:58.634Z,93.70
2019-05-25T04:28:22.593Z,93.80
2019-05-25T04:30:50.616Z,93.70
2019-05-25T04:33:18.162Z,93.30
2019-05-25T04:35:45.658Z,93.20
2019-05-25T04:38:13.267Z,92.70
2019-05-25T04:40:40.864Z,92.50
2019-05-25T04:43:08.460Z,92.30
2019-05-25T04:45:35.945Z,92.10
2019-05-25T04:48:03.801Z,92.00
2019-05-25T04:50:31.439Z,92.10
2019-05-25T04:52:58.964Z,92.00
2019-05-25T04:55:26.426Z,91.60
2019-05-25T04:57:53.929Z,91.50
2019-05-25T05:00:22.632Z,91.40
2019-05-25T05:02:50.169Z,91.30
2019-05-25T05:05:17.748Z,91.10
2019-05-25T05:07:45.209Z,90.60
2019-05-25T05:10:14.643Z,90.40
2019-05-25T05:12:43.303Z,90.20
2019-05-25T05:15:10.916Z,88.80
2019-05-25T05:17:38.557Z,88.80
2019-05-25T05:20:06.844Z,88.10
2019-05-25T05:22:34.323Z,87.70
2019-05-25T05:25:01.939Z,86.90
2019-05-25T05:27:29.819Z,86.80
2019-05-25T05:29:57.223Z,86.20
2019-05-25T05:32:27.606Z,84.50
2019-05-25T05:34:54.280Z,84.10
2019-05-25T05:37:23.621Z,83.60
2019-05-25T05:39:52.842Z,83.20
2019-05-25T05:42:23.083Z,82.70
2019-05-25T05:44:53.620Z,82.10
2019-05-25T05:47:23.655Z,82.50
2019-05-25T05:49:53.369Z,82.30
2019-05-25T05:52:23.555Z,81.90
2019-05-25T05:54:52.910Z,81.00
2019-05-25T05:57:20.426Z,80.40
2019-05-25T05:59:47.944Z,80.80
2019-05-25T06:02:15.742Z,80.80
2019-05-25T06:04:43.466Z,79.90
2019-05-25T06:07:11.031Z,79.90
2019-05-25T06:09:38.966Z,79.70
2019-05-25T06:12:06.487Z,79.70
2019-05-25T06:14:34.023Z,79.50
2019-05-25T06:17:01.505Z,78.40
2019-05-25T06:19:29.177Z,78.60
2019-05-25T06:21:56.598Z,79.50
2019-05-25T06:24:24.109Z,81.50
2019-05-25T06:26:52.672Z,82.30
2019-05-25T06:29:20.198Z,82.80
2019-05-25T06:31:47.877Z,82.50
2019-05-25T06:34:15.453Z,82.10
2019-05-25T06:36:45.602Z,82.80
2019-05-25T06:39:13.059Z,82.70
2019-05-25T06:41:40.661Z,81.40
2019-05-25T06:44:08.135Z,80.40
2019-05-25T06:46:35.654Z,80.00
2019-05-25T06:49:03.207Z,80.20
2019-05-25T06:51:30.761Z,78.90
2019-05-25T06:53:58.220Z,78.60
2019-05-25T06:56:25.709Z,75.80
2019-05-25T06:58:53.275Z,75.60
2019-05-25T07:01:20.903Z,75.60
2019-05-25T07:03:48.460Z,75.80
2019-05-25T07:06:16.621Z,75.00
2019-05-25T07:08:44.181Z,72.20
2019-05-25T07:11:12.529Z,70.90
2019-05-25T07:13:40.168Z,68.10
2019-05-25T07:16:07.893Z,65.70
2019-05-25T07:18:35.783Z,64.40
2019-05-25T07:21:03.777Z,65.10
2019-05-25T07:23:31.240Z,63.50
2019-05-25T07:25:58.851Z,62.00
2019-05-25T07:28:26.960Z,61.00
2019-05-25T07:30:55.025Z,59.20
2019-05-25T07:33:22.564Z,60.30
2019-05-25T07:35:50.055Z,58.60
2019-05-25T07:38:17.710Z,58.00
2019-05-25T07:40:49.395Z,58.40
2019-05-25T07:43:17.290Z,58.90
2019-05-25T07:45:47.042Z,59.30
2019-05-25T07:48:14.597Z,58.90
2019-05-25T07:50:42.054Z,57.80
2019-05-25T07:53:09.506Z,56.60
2019-05-25T07:55:37.065Z,56.70
2019-05-25T07:58:16.455Z,56.70
2019-05-25T08:00:35.718Z,55.70
2019-05-25T08:03:03.346Z,55.20
2019-05-25T08:05:31.001Z,53.20
2019-05-25T08:07:58.626Z,54.90
2019-05-25T08:10:29.483Z,54.20
2019-05-25T08:12:57.267Z,54.90
2019-05-25T08:15:24.798Z,53.70
2019-05-25T08:17:52.445Z,54.30
2019-05-25T08:20:19.981Z,54.60
2019-05-25T08:22:47.872Z,53.20
2019-05-25T08:25:15.493Z,52.00
2019-05-25T08:27:43.038Z,51.00
2019-05-25T08:30:10.526Z,52.00
2019-05-25T08:32:38.366Z,50.30
2019-05-25T08:35:06.471Z,49.00
2019-05-25T08:37:34.195Z,50.50
2019-05-25T08:40:01.885Z,48.10
2019-05-25T08:42:29.545Z,44.90
2019-05-25T08:44:57.322Z,46.20
2019-05-25T08:47:24.948Z,44.10
2019-05-25T08:49:52.473Z,42.30
2019-05-25T08:52:20.529Z,43.00
2019-05-25T08:54:48.137Z,41.80
2019-05-25T08:57:28.416Z,40.90
2019-05-25T08:59:55.945Z,40.00
2019-05-25T09:02:23.394Z,40.10
2019-05-25T09:04:50.885Z,41.20
2019-05-25T09:07:18.681Z,42.70
2019-05-25T09:09:46.962Z,42.40
2019-05-25T09:12:14.428Z,43.20
2019-05-25T09:14:41.925Z,44.10
2019-05-25T09:17:09.489Z,45.00
2019-05-25T09:19:36.978Z,43.50
2019-05-25T09:22:04.449Z,44.90
2019-05-25T09:24:32.076Z,47.20
2019-05-25T09:26:59.726Z,46.80
2019-05-25T09:29:27.452Z,47.60
2019-05-25T09:31:54.963Z,47.60
2019-05-25T09:34:22.434Z,45.90
2019-05-25T09:36:49.952Z,45.90
2019-05-25T09:39:21.444Z,45.00
2019-05-25T09:41:49.062Z,45.90
2019-05-25T09:44:16.621Z,44.00
2019-05-25T09:46:44.086Z,42.40
2019-05-25T09:49:11.567Z,42.90
2019-05-25T09:51:39.747Z,42.90
2019-05-25T09:54:07.216Z,40.80
2019-05-25T09:56:35.797Z,38.60
2019-05-25T09:59:19.275Z,39.40
2019-05-25T10:01:35.294Z,38.30
2019-05-25T10:04:02.857Z,37.70
2019-05-25T10:06:30.435Z,37.30
2019-05-25T10:08:58.004Z,38.30
2019-05-25T10:11:25.552Z,37.70
2019-05-25T10:13:55.509Z,35.70
2019-05-25T10:16:23.134Z,35.40
2019-05-25T10:18:52.196Z,33.70
2019-05-25T10:21:19.886Z,34.50
2019-05-25T10:23:47.414Z,33.60
2019-05-25T10:26:14.971Z,33.60
2019-05-25T10:28:42.801Z,30.60
2019-05-25T10:31:10.496Z,29.20
2019-05-25T10:33:38.176Z,31.30
2019-05-25T10:36:05.969Z,29.90
2019-05-25T10:38:34.060Z,30.70
2019-05-25T10:41:01.756Z,28.20
2019-05-25T10:43:29.307Z,29.50
2019-05-25T10:45:56.928Z,28.70
2019-05-25T10:48:24.498Z,26.90
2019-05-25T10:50:51.956Z,29.10
2019-05-25T10:53:21.858Z,29.60
2019-05-25T10:55:49.323Z,32.50
2019-05-25T10:58:16.934Z,34.40
2019-05-25T11:00:44.489Z,36.50
2019-05-25T11:03:11.954Z,37.10
2019-05-25T11:05:39.406Z,39.20
2019-05-25T11:08:06.937Z,40.30
2019-05-25T11:10:34.815Z,42.30
2019-05-25T11:13:02.277Z,42.90
2019-05-25T11:15:29.712Z,44.60
2019-05-25T11:17:57.325Z,44.10
2019-05-25T11:20:24.884Z,45.50
2019-05-25T11:22:52.445Z,45.30
2019-05-25T11:25:19.946Z,46.10
2019-05-25T11:27:47.487Z,46.80
2019-05-25T11:30:15.334Z,47.00
2019-05-25T11:32:42.943Z,47.50
2019-05-25T11:35:11.086Z,48.10
2019-05-25T11:37:38.507Z,47.30
2019-05-25T11:40:08.238Z,48.80
2019-05-25T11:42:37.349Z,48.50
2019-05-25T11:45:06.763Z,48.10
2019-05-25T11:47:34.308Z,49.00
2019-05-25T11:50:01.863Z,49.30
2019-05-25T11:52:29.406Z,48.10
2019-05-25T11:54:56.893Z,44.40
2019-05-25T11:57:26.705Z,43.00
2019-05-25T11:59:54.159Z,39.40
2019-05-25T12:02:22.749Z,38.90
2019-05-25T12:04:50.487Z,39.40
2019-05-25T12:07:20.041Z,39.70
2019-05-25T12:09:47.551Z,38.20
2019-05-25T12:12:15.040Z,40.60
2019-05-25T12:14:42.531Z,36.90
2019-05-25T12:17:10.102Z,33.70
2019-05-25T12:19:37.631Z,33.70
2019-05-25T12:22:05.101Z,32.80
2019-05-25T12:24:32.654Z,33.60
2019-05-25T12:27:00.240Z,32.70
2019-05-25T12:29:27.712Z,33.90
2019-05-25T12:32:03.661Z,31.50
2019-05-25T12:34:24.917Z,29.60
2019-05-25T12:36:52.422Z,32.80
2019-05-25T12:39:19.892Z,32.20
2019-05-25T12:41:47.402Z,29.80
2019-05-25T12:44:14.893Z,28.30
2019-05-25T12:46:42.499Z,28.20
2019-05-25T12:49:09.934Z,29.30
2019-05-25T12:51:37.394Z,28.90
2019-05-25T12:54:05.382Z,27.80
2019-05-25T12:56:32.881Z,28.70
2019-05-25T12:59:00.895Z,27.90
2019-05-25T13:01:28.385Z,28.00
2019-05-25T13:03:55.796Z,27.70
2019-05-25T13:06:23.257Z,26.80
2019-05-25T13:08:50.741Z,27.40
2019-05-25T13:11:18.277Z,27.00
2019-05-25T13:13:45.954Z,27.00
2019-05-25T13:16:13.588Z,27.20
2019-05-25T13:18:41.316Z,29.10
2019-05-25T13:21:08.927Z,29.30
2019-05-25T13:23:36.544Z,29.20
2019-05-25T13:26:04.062Z,27.00
2019-05-25T13:28:31.838Z,27.50
2019-05-25T13:31:11.423Z,27.40
2019-05-25T13:33:29.322Z,28.40
2019-05-25T13:35:56.772Z,28.80
2019-05-25T13:38:24.241Z,29.80
2019-05-25T13:40:51.758Z,31.90
2019-05-25T13:43:19.241Z,31.90
2019-05-25T13:45:46.773Z,35.00
2019-05-25T13:48:14.365Z,33.40
2019-05-25T13:50:41.830Z,31.80
2019-05-25T13:53:09.275Z,31.00
2019-05-25T13:55:36.720Z,34.70
2019-05-25T13:58:04.295Z,30.60
2019-05-25T14:00:32.003Z,31.60
2019-05-25T14:02:59.706Z,30.90
2019-05-25T14:05:27.340Z,30.10
2019-05-25T14:07:54.785Z,31.00
2019-05-25T14:10:22.253Z,27.10
2019-05-25T14:12:49.802Z,27.60
2019-05-25T14:15:17.309Z,27.40
2019-05-25T14:17:44.974Z,28.70
2019-05-25T14:20:12.633Z,26.70
2019-05-25T14:22:40.082Z,27.80
2019-05-25T14:25:08.237Z,26.90
2019-05-25T14:27:37.049Z,28.50
2019-05-25T14:30:05.165Z,29.80
2019-05-25T14:32:33.403Z,30.20
2019-05-25T14:35:00.872Z,32.50
2019-05-25T14:37:28.389Z,33.30
2019-05-25T14:39:55.968Z,35.70
2019-05-25T14:42:23.418Z,37.70
2019-05-25T14:44:51.164Z,38.50
2019-05-25T14:47:18.655Z,38.30
2019-05-25T14:49:46.114Z,39.50
2019-05-25T14:52:13.675Z,40.10
2019-05-25T14:54:41.307Z,40.10
2019-05-25T14:57:08.799Z,40.10
2019-05-25T14:59:36.295Z,42.00
2019-05-25T15:02:04.001Z,43.20
2019-05-25T15:04:31.658Z,44.30
2019-05-25T15:06:59.148Z,45.00
2019-05-25T15:09:26.747Z,46.50
2019-05-25T15:11:54.313Z,46.70
2019-05-25T15:14:21.873Z,48.20
2019-05-25T15:16:49.615Z,49.00
2019-05-25T15:19:17.116Z,49.70
2019-05-25T15:21:44.840Z,48.20
2019-05-25T15:24:12.675Z,47.90
2019-05-25T15:26:40.285Z,47.60
2019-05-25T15:29:11.341Z,51.00
2019-05-25T15:31:38.616Z,49.40
2019-05-25T15:34:06.172Z,50.80
2019-05-25T15:36:33.737Z,53.90
2019-05-25T15:39:01.210Z,56.30
2019-05-25T15:41:28.789Z,57.40
2019-05-25T15:43:56.517Z,61.20
2019-05-25T15:46:24.096Z,65.50
2019-05-25T15:48:51.684Z,69.40
2019-05-25T15:51:19.328Z,70.40
2019-05-25T15:53:46.998Z,74.30
2019-05-25T15:56:14.794Z,76.90
2019-05-25T15:58:42.571Z,78.70
2019-05-25T16:01:10.102Z,81.50
2019-05-25T16:03:37.872Z,82.70
2019-05-25T16:06:05.440Z,83.80
2019-05-25T16:08:33.019Z,84.30
2019-05-25T16:11:00.556Z,85.30
2019-05-25T16:13:28.871Z,85.10
2019-05-25T16:15:56.878Z,86.20
2019-05-25T16:18:24.456Z,86.90
2019-05-25T16:20:52.021Z,87.70
2019-05-25T16:23:19.786Z,87.50
2019-05-25T16:25:47.452Z,86.40
2019-05-25T16:28:15.601Z,87.70
2019-05-25T16:30:43.263Z,89.60
2019-05-25T16:33:13.685Z,89.90
2019-05-25T16:35:40.353Z,88.10
2019-05-25T16:38:09.247Z,90.10
2019-05-25T16:40:37.315Z,90.10
2019-05-25T16:43:06.013Z,90.20
2019-05-25T16:45:37.267Z,89.60
2019-05-25T16:48:04.911Z,88.10
2019-05-25T16:50:32.635Z,87.90
2019-05-25T16:53:00.271Z,82.70
2019-05-25T16:55:28.247Z,84.70
2019-05-25T16:57:55.790Z,82.80
2019-05-25T17:00:27.490Z,82.80
2019-05-25T17:02:55.983Z,81.00
2019-05-25T17:05:23.596Z,80.40
2019-05-25T17:07:51.191Z,80.80
2019-05-25T17:10:18.874Z,80.00
2019-05-25T17:12:46.431Z,79.30
2019-05-25T17:15:14.046Z,79.10
2019-05-25T17:17:41.798Z,78.20
2019-05-25T17:20:09.386Z,75.90
2019-05-25T17:22:36.886Z,78.70
2019-05-25T17:25:04.638Z,78.20
2019-05-25T17:27:32.213Z,78.70
2019-05-25T17:30:00.187Z,77.80
2019-05-25T17:32:27.672Z,76.50
2019-05-25T17:34:55.490Z,75.80
2019-05-25T17:37:23.005Z,75.40
2019-05-25T17:39:50.563Z,77.80
2019-05-25T17:42:18.259Z,78.60
2019-05-25T17:44:47.207Z,76.50
2019-05-25T17:47:15.254Z,75.90
2019-05-25T17:49:42.931Z,76.90
2019-05-25T17:52:10.610Z,77.30
2019-05-25T17:54:38.305Z,78.20
2019-05-25T17:57:05.878Z,79.90
2019-05-25T17:59:33.489Z,80.20
2019-05-25T18:02:01.090Z,79.30
2019-05-25T18:04:28.791Z,78.60
2019-05-25T18:06:56.353Z,78.20
2019-05-25T18:09:24.055Z,76.30
2019-05-25T18:11:51.715Z,79.10
2019-05-25T18:14:19.651Z,80.20
2019-05-25T18:16:47.211Z,81.20
2019-05-25T18:19:14.763Z,81.40
2019-05-25T18:21:42.288Z,81.40
2019-05-25T18:24:10.114Z,81.00
2019-05-25T18:26:37.676Z,81.20
2019-05-25T18:29:05.138Z,81.70
2019-05-25T18:31:32.690Z,82.30
2019-05-25T18:34:00.388Z,82.50
2019-05-25T18:36:27.901Z,82.70
2019-05-25T18:38:55.937Z,83.40
2019-05-25T18:41:23.539Z,82.80
2019-05-25T18:43:52.290Z,83.00
2019-05-25T18:46:20.087Z,83.80
2019-05-25T18:48:47.742Z,84.90
2019-05-25T18:51:15.630Z,85.50
2019-05-25T18:53:43.376Z,86.60
2019-05-25T18:56:12.034Z,88.10
2019-05-25T18:58:39.935Z,88.40
2019-05-25T19:01:07.486Z,89.70
2019-05-25T19:03:35.353Z,90.10
2019-05-25T19:06:02.988Z,90.30
2019-05-25T19:08:32.542Z,90.50
2019-05-25T19:11:00.867Z,90.70
2019-05-25T19:13:28.392Z,91.00
2019-05-25T19:15:56.074Z,91.30
2019-05-25T19:18:23.648Z,91.50
2019-05-25T19:20:51.253Z,91.30
2019-05-25T19:23:18.866Z,91.50
2019-05-25T19:25:46.461Z,91.80
2019-05-25T19:28:14.009Z,92.60
2019-05-25T19:30:41.689Z,92.60
2019-05-25T19:33:09.335Z,92.80
2019-05-25T19:35:36.998Z,93.00
2019-05-25T19:38:04.724Z,92.80
2019-05-25T19:40:32.547Z,92.40
2019-05-25T19:43:00.241Z,92.50
2019-05-25T19:45:27.912Z,92.60
2019-05-25T19:47:55.939Z,92.50
2019-05-25T19:50:23.458Z,92.50
2019-05-25T19:52:51.010Z,92.70
2019-05-25T19:55:18.740Z,92.80
2019-05-25T19:57:46.386Z,93.10
2019-05-25T20:00:15.431Z,93.20
2019-05-25T20:02:43.104Z,93.40
2019-05-25T20:05:16.788Z,93.60
2019-05-25T20:07:40.422Z,93.80
2019-05-25T20:10:08.709Z,93.90
2019-05-25T20:12:36.265Z,93.80
2019-05-25T20:15:04.066Z,93.50
2019-05-25T20:17:31.889Z,93.30
2019-05-25T20:19:59.756Z,93.50
2019-05-25T20:22:27.414Z,93.50
2019-05-25T20:24:55.390Z,93.70
2019-05-25T20:27:23.016Z,93.80
2019-05-25T20:29:50.577Z,94.00
2019-05-25T20:32:18.362Z,94.00
2019-05-25T20:34:46.050Z,94.10
2019-05-25T20:37:13.701Z,93.90
2019-05-25T20:39:41.250Z,93.80
2019-05-25T20:42:08.891Z,93.90
2019-05-25T20:44:36.521Z,93.80
2019-05-25T20:47:04.175Z,93.90
2019-05-25T20:49:31.840Z,94.20
2019-05-25T20:51:59.311Z,94.30
2019-05-25T20:54:27.090Z,94.40
2019-05-25T20:56:54.766Z,94.40
2019-05-25T20:59:22.372Z,94.40
2019-05-25T21:01:49.904Z,94.40
2019-05-25T21:04:17.466Z,94.60
2019-05-25T21:06:44.969Z,94.90
2019-05-25T21:09:12.688Z,94.80
2019-05-25T21:11:40.339Z,94.70
2019-05-25T21:14:07.883Z,94.70
2019-05-25T21:16:35.542Z,94.90
2019-05-25T21:19:03.257Z,94.90
2019-05-25T21:21:30.836Z,95.10
2019-05-25T21:23:58.390Z,95.50
2019-05-25T21:26:26.305Z,95.90
2019-05-25T21:28:53.906Z,96.10
2019-05-25T21:31:23.809Z,96.20
2019-05-25T21:33:51.886Z,96.40
2019-05-25T21:36:19.439Z,96.30
2019-05-25T21:38:46.953Z,95.90
2019-05-25T21:41:14.437Z,95.90
2019-05-25T21:43:42.039Z,96.30
2019-05-25T21:46:09.709Z,96.50
2019-05-25T21:48:37.471Z,96.60
2019-05-25T21:51:05.220Z,96.80
2019-05-25T21:53:32.704Z,97.10
2019-05-25T21:56:00.246Z,97.20
2019-05-25T21:58:27.763Z,97.30
2019-05-25T22:00:55.271Z,97.20
2019-05-25T22:03:24.744Z,97.40
2019-05-25T22:05:52.206Z,97.40
2019-05-25T22:08:19.761Z,97.40
2019-05-25T22:10:47.318Z,97.20
2019-05-25T22:13:25.251Z,97.00
2019-05-25T22:15:44.601Z,97.00
2019-05-25T22:18:12.274Z,96.90
2019-05-25T22:20:40.040Z,96.90
2019-05-25T22:23:07.760Z,96.80
2019-05-25T22:25:35.371Z,96.80
2019-05-25T22:28:03.009Z,96.90
2019-05-25T22:30:30.590Z,96.90
2019-05-25T22:32:58.474Z,96.70
2019-05-25T22:35:26.183Z,96.60
2019-05-25T22:37:53.687Z,96.80
2019-05-25T22:40:21.292Z,97.00
2019-05-25T22:42:48.899Z,97.00
2019-05-25T22:45:16.413Z,96.90
2019-05-25T22:47:43.978Z,96.90
2019-05-25T22:50:11.581Z,97.10
2019-05-25T22:52:39.953Z,97.20
2019-05-25T22:55:07.639Z,97.10
2019-05-25T22:57:35.238Z,97.10
2019-05-25T23:00:03.714Z,97.10
2019-05-25T23:02:31.408Z,97.00
2019-05-25T23:04:58.887Z,96.90
2019-05-25T23:07:26.475Z,96.80
2019-05-25T23:09:53.954Z,96.70
2019-05-25T23:12:21.458Z,96.50
2019-05-25T23:14:49.002Z,96.70
2019-05-25T23:17:18.163Z,97.00
2019-05-25T23:19:46.272Z,96.90
2019-05-25T23:22:14.048Z,96.90
2019-05-25T23:24:41.595Z,97.10
2019-05-25T23:27:09.522Z,97.00
2019-05-25T23:29:37.244Z,97.00
2019-05-25T23:32:04.743Z,97.00
2019-05-25T23:34:32.343Z,97.10
2019-05-25T23:37:13.630Z,96.90
2019-05-25T23:39:29.502Z,96.90
2019-05-25T23:41:57.040Z,96.90
2019-05-25T23:44:24.526Z,96.90
2019-05-25T23:46:52.104Z,96.90
2019-05-25T23:49:19.634Z,96.80
2019-05-25T23:51:47.130Z,96.70
2019-05-25T23:54:14.784Z,96.60
2019-05-25T23:56:42.324Z,96.60
2019-05-25T23:59:09.829Z,96.80
